Startpagina
METAR-TAF:

METAR-TAF

Vliegvelden :

Pietersburg, Zuid-Afrika

breedte: 23-50-43S, lengte: 29-27-31E, hoogte: 1242 m

Actueel weer

Dit bericht is 48 minuten geleden gemaakt, om 09:00 UTC
Wind 9 kt uit het noorden
Temperatuur 26°C
Vochtigheid 42%
Druk 1013 hPa
Zicht 10 km of meer
geen wolken onder 1500 m en geen cumulonimbus

METAR: FAPP 170900Z 36009KT CAVOK 26/12 Q1013 NOSIG

Tijdstip: 11:48 (09:48 UTC)

Verwachting

Dit bericht is 48 minuten geleden gemaakt, om 09:00 UTC
Verwachting geldig van 17 om 10 UTC tot 17 om 18 UTC
Wind 10 kt uit het noordnoordoosten
Zicht 10 km of meer
geen wolken onder 1500 m en geen cumulonimbus
Wijzigt naar
van 17 om 13 UTC tot 17 om 15 UTC
Wind 10 kt uit het noordwesten
Wijzigt naar
van 17 om 16 UTC tot 17 om 18 UTC
Wind 8 kt uit het noordnoordoosten

TAF: FAPP 170900Z 1710/1718 02010KT CAVOK TX31/1713Z TN25/1718Z BECMG 1713/1715 32010KT BECMG 1716/1718 03008KT

Waarnemingen en weersverwachtingen van meer dan 4000 vliegvelden (METAR en TAF).

De beschikbare stations zijn de gele en rode punten op de kaart.

Ga met uw muis naar het station om de naam te zien.

Klik dan om waarnemingen en weersverwachtingen te zien.

kaart wijzigen: klik op de groene knoppen met een zwart kruis om in te zoomen, op de groene knop met een streepje om uit te zoomen of op de groene pijlen voor aangrenzende kaarten.


METAR-TAF: